sensor_id;sensor_type;location;lat;lon;timestamp;pressure;altitude;pressure_sealevel;temperature;humidity
75312;BME280;63906;55.686;37.532;2023-03-23T00:02:41;99280.88;;;6.28;58.32
75312;BME280;63906;55.686;37.532;2023-03-23T00:07:41;99269.88;;;6.33;57.60
75312;BME280;63906;55.686;37.532;2023-03-23T00:12:45;99270.69;;;6.41;57.25
75312;BME280;63906;55.686;37.532;2023-03-23T00:17:49;99257.19;;;6.30;57.88
75312;BME280;63906;55.686;37.532;2023-03-23T00:22:51;99266.00;;;6.29;57.79
75312;BME280;63906;55.686;37.532;2023-03-23T00:27:51;99253.63;;;6.23;57.78
75312;BME280;63906;55.686;37.532;2023-03-23T00:32:52;99222.84;;;6.02;58.60
75312;BME280;63906;55.686;37.532;2023-03-23T00:37:52;99224.97;;;5.90;58.93
75312;BME280;63906;55.686;37.532;2023-03-23T00:42:53;99247.69;;;5.98;59.48
75312;BME280;63906;55.686;37.532;2023-03-23T00:47:53;99236.94;;;5.92;59.42
75312;BME280;63906;55.686;37.532;2023-03-23T00:52:54;99239.81;;;6.06;59.26
75312;BME280;63906;55.686;37.532;2023-03-23T00:57:57;99241.69;;;6.20;58.40
75312;BME280;63906;55.686;37.532;2023-03-23T01:02:57;99242.59;;;6.04;59.17
75312;BME280;63906;55.686;37.532;2023-03-23T01:07:58;99241.16;;;5.93;59.56
75312;BME280;63906;55.686;37.532;2023-03-23T01:13:00;99221.22;;;6.01;59.17
75312;BME280;63906;55.686;37.532;2023-03-23T01:18:01;99236.34;;;6.13;58.70
75312;BME280;63906;55.686;37.532;2023-03-23T01:23:03;99201.50;;;5.82;59.00
75312;BME280;63906;55.686;37.532;2023-03-23T01:28:04;99204.13;;;5.82;59.26
75312;BME280;63906;55.686;37.532;2023-03-23T01:33:04;99200.66;;;5.89;59.39
75312;BME280;63906;55.686;37.532;2023-03-23T01:38:05;99201.53;;;5.74;60.50
75312;BME280;63906;55.686;37.532;2023-03-23T01:43:12;99193.84;;;5.80;59.85
75312;BME280;63906;55.686;37.532;2023-03-23T01:48:18;99211.69;;;6.08;59.12
75312;BME280;63906;55.686;37.532;2023-03-23T01:53:22;99183.53;;;5.95;59.68
75312;BME280;63906;55.686;37.532;2023-03-23T01:58:30;99178.81;;;5.82;60.15
75312;BME280;63906;55.686;37.532;2023-03-23T02:03:35;99197.09;;;5.82;60.92
75312;BME280;63906;55.686;37.532;2023-03-23T02:08:38;99170.97;;;5.82;60.33
75312;BME280;63906;55.686;37.532;2023-03-23T02:13:39;99193.63;;;5.90;60.38
75312;BME280;63906;55.686;37.532;2023-03-23T02:34:51;99192.28;;;5.63;61.18
75312;BME280;63906;55.686;37.532;2023-03-23T02:39:59;99190.22;;;5.42;61.97
75312;BME280;63906;55.686;37.532;2023-03-23T02:45:09;99175.09;;;5.29;61.24
75312;BME280;63906;55.686;37.532;2023-03-23T02:50:13;99159.78;;;5.18;62.33
75312;BME280;63906;55.686;37.532;2023-03-23T02:55:16;99185.53;;;5.21;63.35
75312;BME280;63906;55.686;37.532;2023-03-23T03:00:17;99190.09;;;5.19;63.12
75312;BME280;63906;55.686;37.532;2023-03-23T03:15:57;99177.41;;;5.00;64.01
75312;BME280;63906;55.686;37.532;2023-03-23T03:21:07;99162.28;;;5.03;63.86
75312;BME280;63906;55.686;37.532;2023-03-23T03:26:12;99178.72;;;5.12;64.11
75312;BME280;63906;55.686;37.532;2023-03-23T03:31:20;99185.22;;;5.16;64.22
75312;BME280;63906;55.686;37.532;2023-03-23T03:36:26;99180.47;;;5.20;63.78
75312;BME280;63906;55.686;37.532;2023-03-23T03:41:27;99142.84;;;5.06;63.24
75312;BME280;63906;55.686;37.532;2023-03-23T03:46:28;99159.16;;;5.00;64.32
75312;BME280;63906;55.686;37.532;2023-03-23T03:51:31;99142.22;;;4.71;64.82
75312;BME280;63906;55.686;37.532;2023-03-23T03:56:32;99165.38;;;4.74;65.37
75312;BME280;63906;55.686;37.532;2023-03-23T04:01:37;99159.84;;;4.61;66.15
75312;BME280;63906;55.686;37.532;2023-03-23T04:06:37;99168.66;;;4.60;66.36
75312;BME280;63906;55.686;37.532;2023-03-23T04:11:38;99167.81;;;4.51;66.96
75312;BME280;63906;55.686;37.532;2023-03-23T04:16:38;99158.38;;;4.42;68.08
75312;BME280;63906;55.686;37.532;2023-03-23T04:21:40;99141.25;;;4.40;67.77
75312;BME280;63906;55.686;37.532;2023-03-23T04:26:41;99145.81;;;4.29;68.39
75312;BME280;63906;55.686;37.532;2023-03-23T04:31:42;99143.72;;;4.49;67.74
75312;BME280;63906;55.686;37.532;2023-03-23T04:36:45;99152.50;;;4.56;68.53
75312;BME280;63906;55.686;37.532;2023-03-23T04:41:49;99161.13;;;4.81;67.60
75312;BME280;63906;55.686;37.532;2023-03-23T04:46:50;99152.81;;;4.70;68.29
75312;BME280;63906;55.686;37.532;2023-03-23T04:51:50;99145.81;;;4.70;67.95
75312;BME280;63906;55.686;37.532;2023-03-23T04:56:51;99153.78;;;4.77;68.28
75312;BME280;63906;55.686;37.532;2023-03-23T05:01:51;99146.81;;;4.69;69.24
75312;BME280;63906;55.686;37.532;2023-03-23T05:06:52;99143.56;;;4.67;68.84
75312;BME280;63906;55.686;37.532;2023-03-23T05:11:53;99109.03;;;4.49;69.11
75312;BME280;63906;55.686;37.532;2023-03-23T05:16:53;99165.53;;;4.81;68.26
75312;BME280;63906;55.686;37.532;2023-03-23T05:21:57;99132.16;;;4.60;69.11
75312;BME280;63906;55.686;37.532;2023-03-23T05:27:02;99138.66;;;4.80;68.48
75312;BME280;63906;55.686;37.532;2023-03-23T05:32:03;99130.81;;;4.80;68.75
75312;BME280;63906;55.686;37.532;2023-03-23T05:37:05;99129.50;;;5.01;67.62
75312;BME280;63906;55.686;37.532;2023-03-23T05:42:06;99143.34;;;5.01;68.42
75312;BME280;63906;55.686;37.532;2023-03-23T05:47:08;99130.75;;;5.21;67.48
75312;BME280;63906;55.686;37.532;2023-03-23T05:52:10;99142.75;;;5.38;67.24
75312;BME280;63906;55.686;37.532;2023-03-23T05:57:11;99144.72;;;5.36;66.90
75312;BME280;63906;55.686;37.532;2023-03-23T06:02:11;99132.13;;;5.48;66.41
75312;BME280;63906;55.686;37.532;2023-03-23T06:07:14;99149.63;;;5.79;66.70
75312;BME280;63906;55.686;37.532;2023-03-23T06:12:14;99129.84;;;5.84;66.18
75312;BME280;63906;55.686;37.532;2023-03-23T06:17:16;99146.22;;;6.32;65.51
75312;BME280;63906;55.686;37.532;2023-03-23T06:22:17;99120.50;;;6.44;64.09
75312;BME280;63906;55.686;37.532;2023-03-23T06:27:18;99131.72;;;6.30;65.27
75312;BME280;63906;55.686;37.532;2023-03-23T06:32:19;99145.63;;;6.68;63.99
75312;BME280;63906;55.686;37.532;2023-03-23T06:37:19;99150.09;;;6.82;63.43
75312;BME280;63906;55.686;37.532;2023-03-23T06:42:22;99148.41;;;7.04;63.46
75312;BME280;63906;55.686;37.532;2023-03-23T06:47:24;99140.84;;;7.24;62.69
75312;BME280;63906;55.686;37.532;2023-03-23T06:52:25;99123.97;;;7.41;62.10
75312;BME280;63906;55.686;37.532;2023-03-23T06:57:26;99109.63;;;7.37;62.15
75312;BME280;63906;55.686;37.532;2023-03-23T07:02:27;99120.69;;;7.69;61.26
75312;BME280;63906;55.686;37.532;2023-03-23T07:07:27;99124.38;;;7.89;60.15
75312;BME280;63906;55.686;37.532;2023-03-23T07:12:28;99110.63;;;7.87;59.89
75312;BME280;63906;55.686;37.532;2023-03-23T07:17:29;99124.50;;;8.02;59.63
75312;BME280;63906;55.686;37.532;2023-03-23T07:22:29;99091.72;;;7.92;59.66
75312;BME280;63906;55.686;37.532;2023-03-23T07:27:30;99110.06;;;8.13;59.61
75312;BME280;63906;55.686;37.532;2023-03-23T07:32:31;99094.19;;;8.15;58.39
75312;BME280;63906;55.686;37.532;2023-03-23T07:37:31;99114.78;;;8.60;57.33
75312;BME280;63906;55.686;37.532;2023-03-23T07:42:32;99082.81;;;8.29;57.97
75312;BME280;63906;55.686;37.532;2023-03-23T07:47:33;99095.00;;;8.58;57.45
75312;BME280;63906;55.686;37.532;2023-03-23T07:52:34;99087.66;;;8.75;57.01
75312;BME280;63906;55.686;37.532;2023-03-23T07:57:35;99083.50;;;8.87;56.88
75312;BME280;63906;55.686;37.532;2023-03-23T08:02:35;99065.28;;;8.79;56.31
75312;BME280;63906;55.686;37.532;2023-03-23T08:07:36;99078.19;;;9.08;55.23
75312;BME280;63906;55.686;37.532;2023-03-23T08:12:38;99063.38;;;9.42;53.24
75312;BME280;63906;55.686;37.532;2023-03-23T08:17:39;99057.75;;;9.38;54.02
75312;BME280;63906;55.686;37.532;2023-03-23T08:22:50;99077.66;;;9.81;53.56
75312;BME280;63906;55.686;37.532;2023-03-23T08:27:53;99055.91;;;10.07;52.64
75312;BME280;63906;55.686;37.532;2023-03-23T08:32:58;99058.34;;;10.15;51.58
75312;BME280;63906;55.686;37.532;2023-03-23T08:38:01;99061.59;;;10.23;51.04
75312;BME280;63906;55.686;37.532;2023-03-23T08:43:01;99062.63;;;10.29;50.69
75312;BME280;63906;55.686;37.532;2023-03-23T08:48:05;99042.81;;;10.27;50.21
75312;BME280;63906;55.686;37.532;2023-03-23T08:53:08;99045.84;;;10.50;50.04
75312;BME280;63906;55.686;37.532;2023-03-23T08:58:08;99023.16;;;10.42;49.92
75312;BME280;63906;55.686;37.532;2023-03-23T09:03:09;98977.41;;;10.37;50.30
75312;BME280;63906;55.686;37.532;2023-03-23T09:08:10;98990.38;;;10.51;49.16
75312;BME280;63906;55.686;37.532;2023-03-23T09:13:12;98994.22;;;10.62;49.47
75312;BME280;63906;55.686;37.532;2023-03-23T09:18:13;99006.31;;;10.76;48.51
75312;BME280;63906;55.686;37.532;2023-03-23T09:23:14;98991.53;;;10.75;48.37
75312;BME280;63906;55.686;37.532;2023-03-23T09:28:15;98985.38;;;11.01;47.53
75312;BME280;63906;55.686;37.532;2023-03-23T09:33:16;98980.13;;;11.01;47.49
75312;BME280;63906;55.686;37.532;2023-03-23T09:38:16;98959.78;;;11.15;47.44
75312;BME280;63906;55.686;37.532;2023-03-23T09:43:32;98963.25;;;11.54;47.22
75312;BME280;63906;55.686;37.532;2023-03-23T09:48:53;98967.84;;;11.97;46.98
75312;BME280;63906;55.686;37.532;2023-03-23T09:53:59;98947.44;;;12.10;45.58
75312;BME280;63906;55.686;37.532;2023-03-23T09:59:13;98935.44;;;12.15;45.41
75312;BME280;63906;55.686;37.532;2023-03-23T10:09:22;98915.41;;;12.50;43.77
75312;BME280;63906;55.686;37.532;2023-03-23T10:14:32;98930.47;;;13.88;41.05
75312;BME280;63906;55.686;37.532;2023-03-23T10:24:57;98893.47;;;17.43;35.38
75312;BME280;63906;55.686;37.532;2023-03-23T10:41:15;98877.06;;;21.94;27.64
75312;BME280;63906;55.686;37.532;2023-03-23T10:51:34;98903.50;;;23.58;24.22
75312;BME280;63906;55.686;37.532;2023-03-23T10:56:41;98900.53;;;23.03;24.19
75312;BME280;63906;55.686;37.532;2023-03-23T11:01:44;98869.97;;;23.75;24.74
75312;BME280;63906;55.686;37.532;2023-03-23T11:06:48;98873.66;;;23.60;22.54
75312;BME280;63906;55.686;37.532;2023-03-23T11:11:52;98866.50;;;23.88;22.22
75312;BME280;63906;55.686;37.532;2023-03-23T11:16:55;98867.06;;;23.52;22.50
75312;BME280;63906;55.686;37.532;2023-03-23T11:27:06;98875.84;;;23.58;22.61
75312;BME280;63906;55.686;37.532;2023-03-23T11:32:11;98889.44;;;21.12;24.74
75312;BME280;63906;55.686;37.532;2023-03-23T11:37:20;98877.44;;;20.29;26.32
75312;BME280;63906;55.686;37.532;2023-03-23T11:42:25;98894.03;;;18.51;29.30
75312;BME280;63906;55.686;37.532;2023-03-23T11:47:34;98905.03;;;17.54;30.11
75312;BME280;63906;55.686;37.532;2023-03-23T11:52:55;98888.47;;;16.32;32.00
75312;BME280;63906;55.686;37.532;2023-03-23T11:58:10;98896.91;;;15.90;33.50
75312;BME280;63906;55.686;37.532;2023-03-23T12:56:21;98860.41;;;14.49;37.75
75312;BME280;63906;55.686;37.532;2023-03-23T13:01:30;98844.66;;;14.19;38.37
75312;BME280;63906;55.686;37.532;2023-03-23T13:06:37;98853.25;;;14.26;38.97
75312;BME280;63906;55.686;37.532;2023-03-23T13:11:39;98854.97;;;14.56;37.90
75312;BME280;63906;55.686;37.532;2023-03-23T13:21:53;98816.31;;;14.72;37.39
75312;BME280;63906;55.686;37.532;2023-03-23T13:26:56;98832.34;;;14.65;37.69
75312;BME280;63906;55.686;37.532;2023-03-23T13:32:19;98768.03;;;14.13;37.95
75312;BME280;63906;55.686;37.532;2023-03-23T13:37:25;98825.56;;;14.17;38.89
75312;BME280;63906;55.686;37.532;2023-03-23T13:42:28;98834.44;;;13.76;39.37
75312;BME280;63906;55.686;37.532;2023-03-23T13:47:39;98817.31;;;13.67;39.66
75312;BME280;63906;55.686;37.532;2023-03-23T14:03:03;98827.81;;;13.02;42.37
75312;BME280;63906;55.686;37.532;2023-03-23T14:13:29;98811.63;;;12.68;42.64
75312;BME280;63906;55.686;37.532;2023-03-23T14:18:36;98796.41;;;12.52;43.61
75312;BME280;63906;55.686;37.532;2023-03-23T14:23:36;98792.97;;;12.33;44.16
75312;BME280;63906;55.686;37.532;2023-03-23T14:28:40;98758.25;;;12.18;44.34
75312;BME280;63906;55.686;37.532;2023-03-23T14:33:41;98798.81;;;12.17;45.15
75312;BME280;63906;55.686;37.532;2023-03-23T14:38:42;98780.50;;;11.85;45.55
75312;BME280;63906;55.686;37.532;2023-03-23T14:43:44;98781.63;;;11.96;45.43
75312;BME280;63906;55.686;37.532;2023-03-23T14:48:45;98785.44;;;11.81;46.10
75312;BME280;63906;55.686;37.532;2023-03-23T14:53:47;98780.34;;;11.55;47.34
75312;BME280;63906;55.686;37.532;2023-03-23T14:58:52;98773.59;;;11.41;46.91
75312;BME280;63906;55.686;37.532;2023-03-23T15:03:57;98780.41;;;11.48;46.97
75312;BME280;63906;55.686;37.532;2023-03-23T15:09:02;98761.97;;;11.23;47.56
75312;BME280;63906;55.686;37.532;2023-03-23T15:14:26;98786.88;;;11.27;47.59
75312;BME280;63906;55.686;37.532;2023-03-23T15:19:40;98772.19;;;11.13;48.37
75312;BME280;63906;55.686;37.532;2023-03-23T15:24:43;98744.16;;;10.69;49.10
75312;BME280;63906;55.686;37.532;2023-03-23T15:29:52;98754.41;;;10.77;49.02
75312;BME280;63906;55.686;37.532;2023-03-23T15:34:53;98772.25;;;11.07;48.54
75312;BME280;63906;55.686;37.532;2023-03-23T15:39:55;98765.75;;;11.09;49.24
75312;BME280;63906;55.686;37.532;2023-03-23T16:00:25;98756.88;;;10.72;49.13
75312;BME280;63906;55.686;37.532;2023-03-23T16:05:27;98761.28;;;10.78;49.21
75312;BME280;63906;55.686;37.532;2023-03-23T16:10:28;98761.56;;;10.70;49.31
75312;BME280;63906;55.686;37.532;2023-03-23T16:15:29;98753.25;;;10.66;49.63
75312;BME280;63906;55.686;37.532;2023-03-23T16:20:30;98730.78;;;10.70;48.79
75312;BME280;63906;55.686;37.532;2023-03-23T16:25:32;98740.94;;;10.60;49.26
75312;BME280;63906;55.686;37.532;2023-03-23T16:30:33;98759.13;;;10.68;49.38
75312;BME280;63906;55.686;37.532;2023-03-23T16:35:35;98738.13;;;10.55;49.73
75312;BME280;63906;55.686;37.532;2023-03-23T16:40:36;98761.22;;;10.53;49.75
75312;BME280;63906;55.686;37.532;2023-03-23T16:45:41;98738.94;;;10.62;49.36
75312;BME280;63906;55.686;37.532;2023-03-23T16:50:44;98724.72;;;10.32;50.70
75312;BME280;63906;55.686;37.532;2023-03-23T16:55:45;98740.94;;;10.15;50.83
75312;BME280;63906;55.686;37.532;2023-03-23T17:00:49;98737.16;;;9.98;51.15
75312;BME280;63906;55.686;37.532;2023-03-23T17:05:53;98652.44;;;9.38;51.32
75312;BME280;63906;55.686;37.532;2023-03-23T17:10:54;98677.44;;;9.54;51.59
75312;BME280;63906;55.686;37.532;2023-03-23T17:15:55;98690.34;;;9.62;51.64
75312;BME280;63906;55.686;37.532;2023-03-23T17:20:56;98683.16;;;9.44;52.21
75312;BME280;63906;55.686;37.532;2023-03-23T17:25:57;98714.81;;;9.62;52.33
75312;BME280;63906;55.686;37.532;2023-03-23T17:30:57;98701.66;;;9.62;52.28
75312;BME280;63906;55.686;37.532;2023-03-23T17:35:58;98682.28;;;9.63;52.27
75312;BME280;63906;55.686;37.532;2023-03-23T17:40:59;98670.72;;;9.78;51.96
75312;BME280;63906;55.686;37.532;2023-03-23T17:46:00;98672.69;;;9.89;51.38
75312;BME280;63906;55.686;37.532;2023-03-23T17:51:02;98642.06;;;9.56;52.78
75312;BME280;63906;55.686;37.532;2023-03-23T17:56:04;98609.56;;;9.57;52.34
75312;BME280;63906;55.686;37.532;2023-03-23T18:01:05;98660.31;;;9.96;52.44
75312;BME280;63906;55.686;37.532;2023-03-23T18:06:07;98656.28;;;10.00;52.61
75312;BME280;63906;55.686;37.532;2023-03-23T18:11:08;98650.63;;;9.96;52.34
75312;BME280;63906;55.686;37.532;2023-03-23T18:16:09;98657.69;;;9.96;52.81
75312;BME280;63906;55.686;37.532;2023-03-23T18:21:10;98646.94;;;10.04;52.45
75312;BME280;63906;55.686;37.532;2023-03-23T18:26:12;98644.91;;;9.99;52.58
75312;BME280;63906;55.686;37.532;2023-03-23T18:31:14;98645.00;;;9.80;52.80
75312;BME280;63906;55.686;37.532;2023-03-23T18:36:18;98613.59;;;9.53;53.66
75312;BME280;63906;55.686;37.532;2023-03-23T18:41:19;98630.31;;;9.65;53.39
75312;BME280;63906;55.686;37.532;2023-03-23T18:46:20;98621.66;;;9.58;53.07
75312;BME280;63906;55.686;37.532;2023-03-23T18:51:21;98634.13;;;9.76;53.03
75312;BME280;63906;55.686;37.532;2023-03-23T18:56:22;98594.16;;;9.61;52.97
75312;BME280;63906;55.686;37.532;2023-03-23T19:01:22;98618.81;;;9.60;53.42
75312;BME280;63906;55.686;37.532;2023-03-23T19:06:25;98589.75;;;9.48;52.95
75312;BME280;63906;55.686;37.532;2023-03-23T19:11:28;98609.94;;;9.54;53.98
75312;BME280;63906;55.686;37.532;2023-03-23T19:16:30;98559.03;;;9.49;53.61
75312;BME280;63906;55.686;37.532;2023-03-23T19:21:31;98570.00;;;9.39;53.87
75312;BME280;63906;55.686;37.532;2023-03-23T19:26:35;98598.22;;;9.50;53.82
75312;BME280;63906;55.686;37.532;2023-03-23T19:31:37;98587.50;;;9.58;53.80
75312;BME280;63906;55.686;37.532;2023-03-23T19:36:38;98587.69;;;9.63;53.61
75312;BME280;63906;55.686;37.532;2023-03-23T19:41:39;98578.00;;;9.64;53.17
75312;BME280;63906;55.686;37.532;2023-03-23T19:46:39;98488.06;;;9.17;52.79
75312;BME280;63906;55.686;37.532;2023-03-23T19:51:40;98558.38;;;9.66;53.38
75312;BME280;63906;55.686;37.532;2023-03-23T19:56:44;98548.09;;;9.58;53.52
75312;BME280;63906;55.686;37.532;2023-03-23T20:01:44;98558.44;;;9.53;53.43
75312;BME280;63906;55.686;37.532;2023-03-23T20:06:45;98555.47;;;9.75;52.66
75312;BME280;63906;55.686;37.532;2023-03-23T20:11:46;98527.50;;;9.55;52.72
75312;BME280;63906;55.686;37.532;2023-03-23T20:16:46;98499.88;;;9.46;52.89
75312;BME280;63906;55.686;37.532;2023-03-23T20:21:47;98503.66;;;9.57;52.97
75312;BME280;63906;55.686;37.532;2023-03-23T20:26:47;98506.25;;;9.63;53.38
75312;BME280;63906;55.686;37.532;2023-03-23T20:31:48;98520.59;;;9.61;53.48
75312;BME280;63906;55.686;37.532;2023-03-23T20:36:51;98493.97;;;9.57;54.02
75312;BME280;63906;55.686;37.532;2023-03-23T20:41:57;98488.78;;;9.44;55.01
75312;BME280;63906;55.686;37.532;2023-03-23T20:47:06;98483.16;;;9.34;54.92
75312;BME280;63906;55.686;37.532;2023-03-23T20:52:07;98522.06;;;9.57;54.91
75312;BME280;63906;55.686;37.532;2023-03-23T20:57:08;98515.81;;;9.51;55.20
75312;BME280;63906;55.686;37.532;2023-03-23T21:02:17;98483.75;;;9.36;55.41
75312;BME280;63906;55.686;37.532;2023-03-23T21:07:20;98477.13;;;9.27;55.50
75312;BME280;63906;55.686;37.532;2023-03-23T21:12:26;98482.34;;;9.33;55.84
75312;BME280;63906;55.686;37.532;2023-03-23T21:17:27;98453.31;;;9.22;55.39
75312;BME280;63906;55.686;37.532;2023-03-23T21:22:27;98462.91;;;9.41;55.90
75312;BME280;63906;55.686;37.532;2023-03-23T21:27:28;98471.78;;;9.47;56.33
75312;BME280;63906;55.686;37.532;2023-03-23T21:32:29;98467.75;;;9.44;57.04
75312;BME280;63906;55.686;37.532;2023-03-23T21:37:29;98448.44;;;9.32;57.50
75312;BME280;63906;55.686;37.532;2023-03-23T21:42:30;98442.38;;;9.25;57.38
75312;BME280;63906;55.686;37.532;2023-03-23T21:47:31;98438.13;;;9.30;57.79
75312;BME280;63906;55.686;37.532;2023-03-23T21:52:32;98426.28;;;9.21;58.29
75312;BME280;63906;55.686;37.532;2023-03-23T21:57:32;98446.34;;;9.40;58.42
75312;BME280;63906;55.686;37.532;2023-03-23T22:02:33;98431.00;;;9.37;58.46
75312;BME280;63906;55.686;37.532;2023-03-23T22:07:34;98433.75;;;9.17;59.29
75312;BME280;63906;55.686;37.532;2023-03-23T22:12:38;98413.50;;;9.25;58.99
75312;BME280;63906;55.686;37.532;2023-03-23T22:17:39;98415.97;;;9.20;59.63
75312;BME280;63906;55.686;37.532;2023-03-23T22:22:40;98388.19;;;9.05;59.50
75312;BME280;63906;55.686;37.532;2023-03-23T22:27:41;98388.38;;;9.04;59.82
75312;BME280;63906;55.686;37.532;2023-03-23T22:32:41;98396.09;;;8.99;60.39
75312;BME280;63906;55.686;37.532;2023-03-23T22:37:42;98385.34;;;9.07;61.29
75312;BME280;63906;55.686;37.532;2023-03-23T22:42:43;98361.19;;;8.92;60.58
75312;BME280;63906;55.686;37.532;2023-03-23T22:47:43;98370.09;;;8.90;61.48
75312;BME280;63906;55.686;37.532;2023-03-23T22:52:44;98331.25;;;8.68;61.39
75312;BME280;63906;55.686;37.532;2023-03-23T22:57:45;98369.75;;;8.74;62.25
75312;BME280;63906;55.686;37.532;2023-03-23T23:02:45;98354.63;;;8.69;63.28
75312;BME280;63906;55.686;37.532;2023-03-23T23:07:46;98349.56;;;8.74;63.63
75312;BME280;63906;55.686;37.532;2023-03-23T23:12:46;98319.91;;;8.74;63.44
75312;BME280;63906;55.686;37.532;2023-03-23T23:17:47;98300.88;;;8.85;63.07
75312;BME280;63906;55.686;37.532;2023-03-23T23:22:48;98308.09;;;8.96;63.00
75312;BME280;63906;55.686;37.532;2023-03-23T23:27:48;98268.19;;;8.81;62.93
75312;BME280;63906;55.686;37.532;2023-03-23T23:32:49;98261.34;;;8.80;63.27
75312;BME280;63906;55.686;37.532;2023-03-23T23:37:51;98222.66;;;8.69;62.28
75312;BME280;63906;55.686;37.532;2023-03-23T23:42:52;98260.72;;;8.84;63.60
75312;BME280;63906;55.686;37.532;2023-03-23T23:47:53;98243.91;;;8.92;62.68
75312;BME280;63906;55.686;37.532;2023-03-23T23:52:53;98237.59;;;9.00;62.71
75312;BME280;63906;55.686;37.532;2023-03-23T23:57:54;98243.41;;;9.08;62.78
